createdAt,value
2022-10-16T00:01:40.891Z,52.77
2022-10-16T00:04:13.625Z,52.85
2022-10-16T00:06:45.778Z,52.76
2022-10-16T00:09:18.602Z,52.91
2022-10-16T00:11:51.696Z,52.92
2022-10-16T00:14:23.890Z,52.80
2022-10-16T00:16:56.105Z,52.79
2022-10-16T00:19:28.358Z,53.00
2022-10-16T00:22:00.478Z,52.92
2022-10-16T00:24:32.946Z,53.02
2022-10-16T00:27:05.157Z,53.04
2022-10-16T00:29:37.282Z,53.17
2022-10-16T00:32:09.601Z,53.08
2022-10-16T00:34:41.709Z,53.20
2022-10-16T00:37:13.894Z,53.14
2022-10-16T00:39:46.116Z,53.23
2022-10-16T00:42:20.708Z,53.21
2022-10-16T00:44:56.810Z,53.36
2022-10-16T00:47:33.660Z,53.41
2022-10-16T00:50:10.209Z,53.34
2022-10-16T00:52:46.786Z,53.50
2022-10-16T00:55:19.157Z,53.35
2022-10-16T00:57:52.312Z,53.44
2022-10-16T01:00:28.926Z,53.39
2022-10-16T01:03:03.124Z,53.45
2022-10-16T01:05:41.856Z,53.55
2022-10-16T01:08:21.077Z,53.64
2022-10-16T01:11:00.151Z,53.63
2022-10-16T01:13:39.605Z,53.50
2022-10-16T01:16:16.839Z,53.61
2022-10-16T01:18:54.784Z,53.66
2022-10-16T01:21:31.423Z,53.79
2022-10-16T01:24:11.189Z,53.75
2022-10-16T01:26:54.606Z,53.83
2022-10-16T01:29:30.250Z,53.81
2022-10-16T01:32:07.424Z,53.80
2022-10-16T01:34:44.426Z,53.81
2022-10-16T01:37:24.098Z,53.92
2022-10-16T01:40:01.358Z,53.92
2022-10-16T01:42:38.024Z,54.02
2022-10-16T01:45:15.419Z,53.98
2022-10-16T01:47:49.229Z,54.08
2022-10-16T01:50:23.157Z,53.96
2022-10-16T01:52:59.788Z,54.05
2022-10-16T01:55:35.365Z,54.13
2022-10-16T01:58:10.635Z,54.11
2022-10-16T02:00:47.487Z,54.14
2022-10-16T02:03:21.965Z,54.25
2022-10-16T02:05:57.863Z,54.28
2022-10-16T02:08:32.987Z,54.25
2022-10-16T02:11:05.360Z,54.43
2022-10-16T02:13:41.912Z,54.42
2022-10-16T02:16:15.847Z,54.39
2022-10-16T02:18:48.112Z,54.43
2022-10-16T02:21:28.777Z,54.39
2022-10-16T02:24:10.452Z,54.54
2022-10-16T02:26:51.240Z,54.48
2022-10-16T02:29:27.894Z,54.47
2022-10-16T02:32:04.387Z,54.56
2022-10-16T02:34:39.122Z,54.45
2022-10-16T02:37:11.825Z,54.59
2022-10-16T02:39:44.706Z,54.67
2022-10-16T02:42:19.849Z,54.69
2022-10-16T02:44:51.960Z,54.68
2022-10-16T02:47:24.223Z,54.67
2022-10-16T02:49:56.806Z,54.60
2022-10-16T02:52:29.276Z,54.68
2022-10-16T02:55:01.861Z,54.68
2022-10-16T02:57:37.953Z,54.81
2022-10-16T03:00:13.817Z,54.73
2022-10-16T03:02:44.431Z,54.79
2022-10-16T03:05:17.782Z,54.86
2022-10-16T03:07:50.173Z,54.83
2022-10-16T03:10:22.310Z,54.85
2022-10-16T03:12:54.456Z,54.86
2022-10-16T03:15:27.023Z,54.86
2022-10-16T03:17:59.785Z,54.88
2022-10-16T03:20:31.882Z,54.88
2022-10-16T03:23:04.178Z,54.97
2022-10-16T03:25:36.369Z,55.01
2022-10-16T03:28:09.005Z,55.02
2022-10-16T03:30:41.831Z,54.93
2022-10-16T03:33:14.305Z,55.02
2022-10-16T03:35:55.163Z,54.99
2022-10-16T03:38:27.330Z,55.09
2022-10-16T03:40:59.421Z,55.10
2022-10-16T03:43:31.564Z,55.10
2022-10-16T03:46:03.825Z,55.20
2022-10-16T03:48:38.709Z,55.11
2022-10-16T03:51:10.873Z,55.08
2022-10-16T03:53:42.992Z,55.06
2022-10-16T03:56:15.202Z,55.19
2022-10-16T03:58:47.376Z,55.16
2022-10-16T04:01:19.672Z,55.12
2022-10-16T04:03:51.880Z,55.01
2022-10-16T04:06:24.251Z,55.17
2022-10-16T04:08:56.369Z,55.35
2022-10-16T04:11:28.545Z,55.34
2022-10-16T04:14:00.700Z,55.32
2022-10-16T04:16:32.985Z,55.32
2022-10-16T04:19:05.126Z,55.37
2022-10-16T04:21:37.400Z,55.35
2022-10-16T04:24:09.562Z,55.46
2022-10-16T04:26:41.704Z,55.51
2022-10-16T04:29:13.817Z,55.47
2022-10-16T04:31:45.973Z,55.46
2022-10-16T04:34:18.116Z,55.31
2022-10-16T04:36:52.395Z,55.41
2022-10-16T04:39:24.730Z,55.30
2022-10-16T04:41:56.966Z,55.46
2022-10-16T04:44:29.061Z,55.62
2022-10-16T04:47:01.254Z,55.65
2022-10-16T04:49:33.447Z,55.60
2022-10-16T04:52:06.158Z,55.66
2022-10-16T04:54:38.284Z,55.66
2022-10-16T04:57:10.481Z,55.77
2022-10-16T04:59:42.625Z,55.76
2022-10-16T05:02:14.819Z,55.76
2022-10-16T05:04:47.030Z,55.88
2022-10-16T05:07:19.255Z,55.90
2022-10-16T05:09:51.433Z,55.81
2022-10-16T05:12:23.694Z,55.89
2022-10-16T05:14:59.656Z,55.75
2022-10-16T05:17:32.272Z,55.89
2022-10-16T05:20:05.021Z,56.02
2022-10-16T05:22:37.217Z,56.18
2022-10-16T05:25:10.540Z,56.14
2022-10-16T05:27:42.648Z,56.35
2022-10-16T05:30:14.975Z,56.55
2022-10-16T05:32:50.508Z,56.40
2022-10-16T05:35:23.345Z,56.25
2022-10-16T05:37:56.678Z,56.17
2022-10-16T05:40:28.975Z,55.81
2022-10-16T05:43:01.197Z,55.40
2022-10-16T05:45:33.306Z,55.22
2022-10-16T05:48:05.732Z,54.68
2022-10-16T05:50:37.928Z,54.50
2022-10-16T05:53:10.040Z,54.35
2022-10-16T05:55:42.263Z,53.87
2022-10-16T05:58:14.437Z,53.44
2022-10-16T06:00:46.623Z,53.13
2022-10-16T06:03:18.857Z,52.75
2022-10-16T06:05:51.190Z,52.53
2022-10-16T06:08:25.020Z,52.19
2022-10-16T06:11:06.604Z,51.90
2022-10-16T06:13:40.120Z,51.84
2022-10-16T06:16:12.977Z,51.94
2022-10-16T06:18:45.437Z,51.70
2022-10-16T06:21:21.331Z,51.50
2022-10-16T06:23:54.133Z,51.21
2022-10-16T06:26:27.793Z,51.19
2022-10-16T06:29:01.776Z,51.00
2022-10-16T06:31:34.580Z,50.92
2022-10-16T06:34:10.477Z,50.84
2022-10-16T06:36:44.471Z,50.54
2022-10-16T06:39:16.589Z,50.36
2022-10-16T06:41:48.857Z,50.13
2022-10-16T06:44:21.085Z,49.88
2022-10-16T06:46:53.329Z,49.90
2022-10-16T06:49:25.599Z,49.67
2022-10-16T06:51:57.766Z,49.35
2022-10-16T06:54:29.976Z,49.16
2022-10-16T06:57:02.921Z,48.99
2022-10-16T06:59:35.028Z,48.78
2022-10-16T07:02:08.194Z,48.45
2022-10-16T07:04:42.422Z,48.05
2022-10-16T07:07:14.622Z,47.87
2022-10-16T07:09:46.745Z,47.65
2022-10-16T07:12:18.885Z,47.32
2022-10-16T07:14:53.253Z,47.06
2022-10-16T07:17:25.385Z,46.86
2022-10-16T07:19:57.483Z,46.55
2022-10-16T07:22:30.428Z,46.17
2022-10-16T07:25:02.532Z,46.25
2022-10-16T07:27:34.730Z,45.61
2022-10-16T07:30:09.213Z,45.32
2022-10-16T07:32:41.784Z,45.36
2022-10-16T07:35:14.067Z,45.12
2022-10-16T07:37:49.471Z,44.86
2022-10-16T07:40:21.657Z,44.60
2022-10-16T07:42:53.766Z,44.41
2022-10-16T07:45:25.933Z,44.04
2022-10-16T07:47:58.036Z,43.74
2022-10-16T07:50:30.157Z,43.55
2022-10-16T07:53:02.373Z,43.77
2022-10-16T07:55:35.779Z,43.41
2022-10-16T07:58:08.423Z,43.18
2022-10-16T08:00:41.341Z,42.77
2022-10-16T08:03:13.500Z,42.50
2022-10-16T08:05:45.745Z,42.45
2022-10-16T08:08:19.885Z,42.29
2022-10-16T08:10:52.252Z,42.26
2022-10-16T08:13:25.036Z,42.28
2022-10-16T08:15:57.896Z,42.07
2022-10-16T08:18:30.234Z,41.91
2022-10-16T08:21:03.054Z,41.45
2022-10-16T08:23:36.849Z,41.20
2022-10-16T08:26:10.412Z,41.04
2022-10-16T08:28:42.943Z,40.69
2022-10-16T08:33:55.139Z,40.43
2022-10-16T08:36:27.317Z,40.22
2022-10-16T08:38:59.495Z,40.00
2022-10-16T08:42:06.532Z,39.78
2022-10-16T08:45:17.273Z,39.67
2022-10-16T08:47:56.939Z,39.34
2022-10-16T08:50:34.406Z,39.27
2022-10-16T08:53:09.022Z,39.00
2022-10-16T08:55:47.653Z,38.88
2022-10-16T08:58:22.095Z,38.41
2022-10-16T09:00:58.352Z,38.24
2022-10-16T09:03:45.900Z,38.24
2022-10-16T09:06:29.119Z,37.95
2022-10-16T09:09:18.185Z,37.72
2022-10-16T09:11:56.065Z,37.57
2022-10-16T09:14:42.669Z,37.64
2022-10-16T09:17:29.643Z,37.11
2022-10-16T09:20:16.069Z,37.20
2022-10-16T09:22:48.541Z,36.83
2022-10-16T09:25:23.171Z,36.60
2022-10-16T09:27:57.992Z,36.59
2022-10-16T09:30:31.858Z,36.37
2022-10-16T09:33:05.177Z,36.08
2022-10-16T09:35:41.003Z,35.94
2022-10-16T09:38:25.366Z,36.12
2022-10-16T09:41:03.152Z,35.86
2022-10-16T09:43:41.747Z,35.86
2022-10-16T09:46:27.133Z,35.68
2022-10-16T09:49:01.751Z,35.43
2022-10-16T09:51:36.572Z,35.31
2022-10-16T09:54:19.018Z,35.13
2022-10-16T09:56:53.142Z,35.03
2022-10-16T09:59:27.789Z,34.68
2022-10-16T10:02:04.616Z,34.68
2022-10-16T10:04:47.144Z,34.46
2022-10-16T10:07:29.935Z,34.33
2022-10-16T10:10:03.543Z,34.33
2022-10-16T10:12:37.680Z,34.09
2022-10-16T10:15:14.240Z,34.17
2022-10-16T10:17:52.916Z,33.97
2022-10-16T10:20:32.171Z,33.72
2022-10-16T10:23:21.569Z,33.66
2022-10-16T10:26:01.956Z,33.84
2022-10-16T10:28:49.381Z,33.64
2022-10-16T10:31:29.638Z,33.56
2022-10-16T10:34:20.671Z,33.39
2022-10-16T10:37:04.818Z,33.15
2022-10-16T10:39:44.186Z,33.03
2022-10-16T10:42:28.776Z,32.99
2022-10-16T10:45:19.303Z,33.05
2022-10-16T10:48:08.700Z,33.00
2022-10-16T10:50:45.360Z,33.03
2022-10-16T10:53:28.871Z,32.88
2022-10-16T10:56:10.948Z,32.68
2022-10-16T10:59:04.336Z,32.82
2022-10-16T11:01:47.129Z,32.58
2022-10-16T11:04:52.108Z,32.64
2022-10-16T11:07:29.995Z,32.69
2022-10-16T11:10:08.229Z,32.73
2022-10-16T11:12:45.067Z,32.80
2022-10-16T11:15:21.155Z,32.86
2022-10-16T11:17:59.990Z,33.08
2022-10-16T11:20:34.734Z,33.19
2022-10-16T11:23:15.730Z,33.32
2022-10-16T11:25:51.144Z,33.42
2022-10-16T11:28:30.964Z,33.24
2022-10-16T11:31:10.749Z,33.26
2022-10-16T11:33:48.144Z,33.27
2022-10-16T11:36:26.708Z,33.29
2022-10-16T11:39:05.782Z,33.60
2022-10-16T11:41:44.621Z,33.46
2022-10-16T11:44:34.867Z,33.47
2022-10-16T11:47:46.612Z,33.66
2022-10-16T11:50:24.687Z,33.67
2022-10-16T11:53:03.875Z,33.64
2022-10-16T11:55:41.866Z,33.72
2022-10-16T11:58:26.301Z,33.65
2022-10-16T12:01:05.836Z,33.84
2022-10-16T12:03:50.674Z,33.91
2022-10-16T12:06:37.290Z,34.11
2022-10-16T12:09:15.595Z,33.91
2022-10-16T12:11:47.736Z,33.77
2022-10-16T12:15:03.792Z,33.84
2022-10-16T12:17:43.184Z,33.93
2022-10-16T12:20:33.108Z,33.92
2022-10-16T12:23:07.461Z,34.03
2022-10-16T12:25:47.632Z,34.01
2022-10-16T12:28:28.572Z,33.95
2022-10-16T12:31:03.868Z,34.17
2022-10-16T12:33:37.773Z,33.95
2022-10-16T12:36:15.934Z,34.25
2022-10-16T12:38:54.403Z,34.27
2022-10-16T12:41:31.521Z,34.39
2022-10-16T12:44:03.936Z,34.48
2022-10-16T12:46:43.325Z,34.42
2022-10-16T12:49:39.690Z,34.65
2022-10-16T12:52:30.245Z,34.53
2022-10-16T12:55:02.675Z,34.56
2022-10-16T12:57:54.025Z,34.63
2022-10-16T13:00:33.735Z,34.72
2022-10-16T13:03:39.080Z,34.72
2022-10-16T13:06:21.387Z,34.61
2022-10-16T13:09:10.303Z,34.86
2022-10-16T13:12:08.265Z,34.62
2022-10-16T13:15:04.989Z,34.69
2022-10-16T13:17:44.965Z,34.67
2022-10-16T13:20:23.780Z,34.76
2022-10-16T13:23:05.977Z,34.74
2022-10-16T13:25:53.288Z,35.01
2022-10-16T13:28:30.746Z,34.94
2022-10-16T13:31:04.944Z,34.95
2022-10-16T13:33:41.578Z,35.03
2022-10-16T13:36:24.949Z,34.84
2022-10-16T13:39:14.900Z,35.11
2022-10-16T13:41:47.770Z,35.02
2022-10-16T13:44:23.006Z,34.92
2022-10-16T13:47:03.923Z,34.88
2022-10-16T13:49:36.701Z,34.92
2022-10-16T13:52:19.068Z,35.12
2022-10-16T13:54:51.388Z,35.06
2022-10-16T13:57:27.719Z,35.06
2022-10-16T14:00:00.253Z,35.16
2022-10-16T14:02:36.408Z,35.08
2022-10-16T14:05:14.465Z,35.04
2022-10-16T14:07:51.132Z,35.20
2022-10-16T14:10:31.102Z,35.08
2022-10-16T14:13:05.771Z,35.11
2022-10-16T14:15:39.416Z,35.14
2022-10-16T14:18:23.753Z,35.26
2022-10-16T14:21:00.873Z,35.29
2022-10-16T14:23:36.601Z,35.14
2022-10-16T14:26:21.249Z,35.35
2022-10-16T14:29:07.113Z,35.19
2022-10-16T14:31:40.887Z,35.08
2022-10-16T14:34:28.592Z,35.22
2022-10-16T14:39:41.803Z,35.45
2022-10-16T14:42:20.295Z,35.44
2022-10-16T14:44:53.928Z,35.48
2022-10-16T14:47:28.987Z,35.33
2022-10-16T14:50:01.257Z,35.74
2022-10-16T14:52:33.384Z,35.66
2022-10-16T14:55:05.854Z,35.87
2022-10-16T14:57:40.758Z,35.76
2022-10-16T15:00:22.144Z,35.80
2022-10-16T15:02:54.605Z,35.92
2022-10-16T15:05:28.343Z,35.98
2022-10-16T15:08:00.447Z,36.26
2022-10-16T15:10:33.772Z,36.32
2022-10-16T15:13:06.063Z,36.05
2022-10-16T15:15:43.909Z,36.12
2022-10-16T15:18:21.230Z,36.22
2022-10-16T15:20:55.139Z,36.40
2022-10-16T15:23:27.437Z,36.57
2022-10-16T15:26:00.585Z,36.50
2022-10-16T15:28:32.978Z,36.61
2022-10-16T15:31:06.647Z,36.80
2022-10-16T15:33:40.027Z,37.02
2022-10-16T15:36:13.307Z,37.08
2022-10-16T15:38:46.540Z,37.25
2022-10-16T15:41:18.664Z,37.32
2022-10-16T15:43:52.004Z,37.31
2022-10-16T15:46:27.651Z,37.39
2022-10-16T15:48:59.609Z,37.62
2022-10-16T15:51:34.163Z,37.70
2022-10-16T15:54:06.800Z,37.82
2022-10-16T15:56:39.070Z,37.82
2022-10-16T15:59:11.505Z,37.88
2022-10-16T16:01:44.024Z,37.96
2022-10-16T16:04:42.213Z,38.12
2022-10-16T16:07:10.046Z,38.27
2022-10-16T16:09:42.423Z,38.30
2022-10-16T16:12:14.591Z,38.38
2022-10-16T16:14:49.765Z,38.47
2022-10-16T16:17:21.915Z,38.58
2022-10-16T16:19:54.140Z,38.58
2022-10-16T16:22:27.149Z,38.75
2022-10-16T16:24:59.560Z,38.75
2022-10-16T16:27:34.595Z,38.79
2022-10-16T16:30:08.406Z,38.83
2022-10-16T16:32:40.752Z,39.01
2022-10-16T16:35:13.298Z,39.15
2022-10-16T16:37:45.456Z,39.18
2022-10-16T16:40:17.778Z,39.35
2022-10-16T16:42:51.488Z,39.35
2022-10-16T16:45:23.724Z,39.45
2022-10-16T16:47:55.859Z,39.59
2022-10-16T16:50:27.996Z,39.62
2022-10-16T16:53:00.588Z,39.60
2022-10-16T16:55:32.794Z,39.78
2022-10-16T16:58:05.731Z,39.84
2022-10-16T17:00:37.851Z,39.87
2022-10-16T17:03:10.937Z,39.91
2022-10-16T17:05:43.541Z,39.99
2022-10-16T17:08:16.790Z,40.10
2022-10-16T17:10:53.735Z,40.12
2022-10-16T17:13:26.929Z,40.19
2022-10-16T17:15:59.635Z,40.29
2022-10-16T17:18:31.792Z,40.34
2022-10-16T17:21:05.441Z,40.15
2022-10-16T17:23:39.169Z,40.00
2022-10-16T17:26:13.434Z,39.87
2022-10-16T17:28:46.392Z,39.78
2022-10-16T17:31:21.104Z,39.63
2022-10-16T17:33:53.424Z,39.73
2022-10-16T17:36:29.744Z,39.98
2022-10-16T17:39:04.681Z,40.12
2022-10-16T17:41:38.433Z,40.18
2022-10-16T17:44:13.593Z,40.12
2022-10-16T17:46:45.824Z,40.21
2022-10-16T17:49:18.457Z,40.27
2022-10-16T17:51:53.437Z,40.32
2022-10-16T17:54:25.682Z,40.40
2022-10-16T17:56:57.873Z,40.54
2022-10-16T17:59:30.124Z,40.64
2022-10-16T18:02:02.318Z,40.63
2022-10-16T18:04:34.581Z,40.55
2022-10-16T18:07:06.737Z,40.38
2022-10-16T18:09:49.558Z,40.48
2022-10-16T18:12:31.225Z,40.54
2022-10-16T18:15:03.541Z,40.51
2022-10-16T18:17:39.004Z,40.52
2022-10-16T18:20:12.951Z,40.36
2022-10-16T18:22:45.096Z,40.41
2022-10-16T18:25:17.329Z,40.27
2022-10-16T18:27:49.505Z,40.15
2022-10-16T18:30:22.744Z,40.23
2022-10-16T18:32:55.000Z,40.13
2022-10-16T18:35:27.257Z,40.25
2022-10-16T18:38:00.780Z,40.18
2022-10-16T18:40:33.015Z,40.19
2022-10-16T18:43:05.077Z,40.15
2022-10-16T18:45:37.410Z,40.27
2022-10-16T18:48:10.206Z,40.13
2022-10-16T18:50:42.333Z,40.18
2022-10-16T18:53:15.208Z,40.22
2022-10-16T18:55:54.439Z,40.17
2022-10-16T18:58:26.639Z,40.15
2022-10-16T19:01:03.827Z,40.11
2022-10-16T19:03:36.173Z,40.12
2022-10-16T19:06:10.730Z,40.07
2022-10-16T19:08:44.264Z,40.24
2022-10-16T19:11:18.906Z,40.27
2022-10-16T19:13:52.181Z,40.37
2022-10-16T19:16:26.815Z,40.50
2022-10-16T19:19:01.134Z,40.70
2022-10-16T19:21:35.958Z,40.52
2022-10-16T19:24:09.543Z,40.52
2022-10-16T19:26:42.274Z,40.58
2022-10-16T19:29:14.963Z,40.69
2022-10-16T19:31:47.109Z,40.63
2022-10-16T19:34:19.218Z,40.84
2022-10-16T19:36:54.257Z,40.95
2022-10-16T19:39:26.544Z,41.04
2022-10-16T19:41:58.692Z,41.09
2022-10-16T19:44:30.863Z,41.23
2022-10-16T19:47:03.193Z,41.22
2022-10-16T19:49:35.370Z,41.24
2022-10-16T19:52:07.599Z,41.33
2022-10-16T19:54:39.743Z,41.52
2022-10-16T19:57:12.025Z,41.46
2022-10-16T19:59:45.663Z,41.66
2022-10-16T20:02:18.153Z,41.60
2022-10-16T20:04:50.237Z,41.65
2022-10-16T20:07:23.597Z,41.72
2022-10-16T20:09:57.014Z,41.75
2022-10-16T20:12:29.424Z,41.89
2022-10-16T20:15:02.232Z,41.90
2022-10-16T20:17:34.360Z,42.01
2022-10-16T20:20:07.697Z,42.04
2022-10-16T20:22:39.844Z,42.17
2022-10-16T20:25:15.487Z,42.32
2022-10-16T20:27:50.862Z,42.21
2022-10-16T20:30:22.961Z,42.30
2022-10-16T20:32:56.847Z,42.44
2022-10-16T20:35:29.139Z,42.34
2022-10-16T20:38:01.272Z,42.56
2022-10-16T20:40:35.085Z,42.60
2022-10-16T20:43:08.823Z,42.50
2022-10-16T20:45:41.052Z,42.68
2022-10-16T20:48:14.004Z,42.67
2022-10-16T20:50:46.138Z,42.77
2022-10-16T20:53:18.332Z,42.83
2022-10-16T20:55:50.466Z,42.78
2022-10-16T20:58:22.585Z,42.84
2022-10-16T21:00:54.752Z,42.84
2022-10-16T21:03:26.948Z,42.87
2022-10-16T21:06:00.095Z,42.96
2022-10-16T21:08:35.521Z,43.01
2022-10-16T21:11:15.395Z,43.05
2022-10-16T21:13:48.332Z,43.15
2022-10-16T21:16:20.684Z,43.20
2022-10-16T21:18:53.790Z,43.19
2022-10-16T21:21:27.592Z,43.17
2022-10-16T21:24:01.814Z,43.38
2022-10-16T21:26:34.489Z,43.40
2022-10-16T21:29:08.553Z,43.52
2022-10-16T21:31:41.469Z,43.58
2022-10-16T21:34:13.729Z,43.72
2022-10-16T21:36:45.840Z,43.66
2022-10-16T21:39:21.215Z,43.89
2022-10-16T21:41:53.561Z,44.23
2022-10-16T21:44:25.665Z,44.35
2022-10-16T21:46:57.823Z,44.85
2022-10-16T21:49:30.189Z,45.07
2022-10-16T21:52:02.312Z,45.14
2022-10-16T21:54:34.903Z,45.33
2022-10-16T21:57:07.254Z,45.37
2022-10-16T21:59:39.526Z,45.52
2022-10-16T22:02:11.629Z,45.59
2022-10-16T22:04:43.766Z,45.79
2022-10-16T22:07:15.965Z,45.72
2022-10-16T22:09:48.143Z,45.66
2022-10-16T22:12:20.767Z,45.95
2022-10-16T22:14:53.032Z,45.97
2022-10-16T22:17:25.474Z,46.01
2022-10-16T22:19:57.930Z,46.35
2022-10-16T22:22:30.035Z,46.25
2022-10-16T22:25:02.169Z,46.29
2022-10-16T22:27:34.284Z,46.24
2022-10-16T22:30:07.153Z,46.24
2022-10-16T22:32:39.557Z,46.13
2022-10-16T22:35:12.839Z,46.23
2022-10-16T22:37:46.698Z,46.29
2022-10-16T22:40:18.976Z,46.22
2022-10-16T22:42:51.138Z,46.39
2022-10-16T22:45:23.297Z,46.42
2022-10-16T22:47:55.434Z,46.52
2022-10-16T22:50:28.078Z,46.35
2022-10-16T22:53:00.232Z,46.40
2022-10-16T22:55:32.424Z,46.40
2022-10-16T22:58:04.492Z,46.53
2022-10-16T23:00:36.777Z,46.69
2022-10-16T23:03:09.000Z,46.79
2022-10-16T23:05:43.662Z,46.71
2022-10-16T23:08:15.826Z,46.87
2022-10-16T23:10:49.861Z,46.94
2022-10-16T23:13:21.966Z,46.90
2022-10-16T23:15:54.120Z,47.08
2022-10-16T23:18:26.273Z,47.02
2022-10-16T23:20:58.413Z,47.32
2022-10-16T23:23:30.563Z,47.24
2022-10-16T23:26:02.813Z,47.31
2022-10-16T23:28:35.019Z,47.38
2022-10-16T23:31:09.208Z,47.53
2022-10-16T23:33:42.403Z,47.64
2022-10-16T23:36:16.907Z,47.66
2022-10-16T23:38:50.303Z,47.66
2022-10-16T23:41:23.100Z,47.70
2022-10-16T23:43:55.296Z,47.78
2022-10-16T23:46:27.439Z,47.85
2022-10-16T23:48:59.590Z,47.98
2022-10-16T23:51:31.764Z,48.05
2022-10-16T23:54:04.010Z,48.11
2022-10-16T23:56:36.118Z,48.18
2022-10-16T23:59:08.266Z,48.18
